< Typhoon 197404 1974 Season Typhoon 197406 >
Typhoon 197405 (DINAH)
General InformationTrack Information on Google Maps || Disaster Info.ResourceGoogle EarthGE AnimationAtom FeedGeoJSON
Detalied Best Track (Time Zone = UTC)
Year Month Day Hour Lat. Long. Pressure (hPa) Wind (kt) Class Image Chart
1974 6 5 06 6.0 144.0 1006 0 2 -- Chart
1974 6 5 12 8.0 142.0 1008 0 2 -- Chart
1974 6 5 18 9.5 140.6 1006 0 2 -- Chart
1974 6 6 00 10.2 139.8 1006 0 2 -- Chart
1974 6 6 06 10.4 138.8 1000 0 2 -- Chart
1974 6 6 12 10.8 137.7 1000 0 2 -- Chart
1974 6 6 18 11.3 136.5 1000 0 2 -- Chart
1974 6 7 00 11.7 135.1 1000 0 2 -- Chart
1974 6 7 06 12.2 133.4 998 0 2 -- Chart
1974 6 7 12 12.5 131.7 996 0 2 -- Chart
1974 6 7 18 12.7 130.2 994 0 2 -- Chart
1974 6 8 00 13.0 128.5 992 0 9 -- Chart
1974 6 8 06 13.3 127.6 980 0 9 -- Chart
1974 6 8 12 13.7 126.9 985 0 9 -- Chart
1974 6 8 18 14.0 126.2 990 0 9 -- Chart
1974 6 9 00 14.3 125.3 990 0 9 -- Chart
1974 6 9 06 14.3 124.3 985 0 9 -- Chart
1974 6 9 12 14.3 123.4 985 0 9 -- Chart
1974 6 9 18 14.8 122.9 975 0 9 -- Chart
1974 6 10 00 15.2 122.5 975 0 9 -- Chart
1974 6 10 06 15.8 121.3 975 0 9 -- Chart
1974 6 10 12 16.1 120.1 980 0 9 -- Chart
1974 6 10 18 16.3 118.9 985 0 9 -- Chart
1974 6 11 00 16.4 117.6 985 0 9 -- Chart
1974 6 11 06 16.5 117.0 980 0 9 -- Chart
1974 6 11 12 16.8 116.0 980 0 9 -- Chart
1974 6 11 18 17.2 115.1 980 0 9 -- Chart
1974 6 12 00 17.7 114.3 970 0 9 -- Chart
1974 6 12 06 18.3 113.7 970 0 9 -- Chart
1974 6 12 12 18.7 112.7 965 0 9 -- Chart
1974 6 12 18 19.3 111.7 970 0 9 -- Chart
1974 6 13 00 19.9 110.3 980 0 9 -- Chart
1974 6 13 06 20.0 109.3 980 0 9 -- Chart
1974 6 13 12 20.2 108.3 984 0 9 -- Chart
1974 6 13 18 20.3 107.4 988 0 9 -- Chart
1974 6 14 00 20.5 106.4 988 0 9 -- Chart
1974 6 14 06 20.7 105.3 992 0 2 -- Chart
1974 6 14 12 20.3 104.0 994 0 2 -- Chart
1974 6 14 18 20.0 102.8 996 0 2 -- Chart
Japan Meteorological Agency Best Track Data | Correction Date : 1990-10-17
< Typhoon 197404 1974 Season Typhoon 197406 >

Help